2CUTH EGHH-LFRT
Flight info
| Callsign | 2CUTH |
|---|---|
| Flight time | 0h 58m |
| Altitude | 8000 |
| Route | THRED Q41 ORTAC DCT DOMOK DCT LERAK |
| Aircraft | BE36/L-BDFGLORY/S |
Departure
| Time | 2026-04-25 09:42 |
|---|---|
| Airport | Bournemouth Airport (EGHH) |
Arrival
| Time | 2026-04-25 10:40 |
|---|---|
| Airport | Saint-Brieuc-Armor Airport (LFRT) |
| Time | Latitude | Longitude | Altitude | Speed | Heading |
|---|---|---|---|---|---|
| 2026-04-25 09:33 | 50.78453 | -1.82854 | 35 ft | 0 kts | 148° |
| 2026-04-25 09:39 | 50.78441 | -1.82859 | 35 ft | 7 kts | 217° |
| 2026-04-25 09:40 | 50.78338 | -1.82793 | 35 ft | 8 kts | 132° |
| 2026-04-25 09:40 | 50.78335 | -1.82787 | 35 ft | 0 kts | 137° |
| 2026-04-25 09:40 | 50.78318 | -1.82764 | 35 ft | 12 kts | 136° |
| 2026-04-25 09:41 | 50.78252 | -1.82775 | 35 ft | 12 kts | 256° |
| 2026-04-25 09:41 | 50.78184 | -1.83184 | 37 ft | 70 kts | 259° |
| 2026-04-25 09:41 | 50.78002 | -1.84090 | 173 ft | 96 kts | 247° |
| 2026-04-25 09:41 | 50.77741 | -1.85133 | 439 ft | 106 kts | 253° |
| 2026-04-25 09:42 | 50.77539 | -1.86310 | 631 ft | 115 kts | 253° |
| 2026-04-25 09:42 | 50.77319 | -1.87540 | 935 ft | 115 kts | 253° |
| 2026-04-25 09:42 | 50.76971 | -1.88647 | 1304 ft | 113 kts | 209° |
| 2026-04-25 09:42 | 50.76225 | -1.88950 | 1709 ft | 113 kts | 189° |
| 2026-04-25 09:43 | 50.75485 | -1.88858 | 2101 ft | 106 kts | 142° |
| 2026-04-25 09:43 | 50.74869 | -1.88165 | 2475 ft | 111 kts | 147° |
| 2026-04-25 09:43 | 50.74210 | -1.87541 | 2840 ft | 111 kts | 147° |
| 2026-04-25 09:43 | 50.73541 | -1.86922 | 3128 ft | 111 kts | 148° |
| 2026-04-25 09:44 | 50.72875 | -1.86326 | 3446 ft | 112 kts | 150° |
| 2026-04-25 09:44 | 50.72195 | -1.85722 | 3798 ft | 113 kts | 150° |
| 2026-04-25 09:44 | 50.71505 | -1.85128 | 4130 ft | 113 kts | 150° |
| 2026-04-25 09:44 | 50.70817 | -1.84525 | 4418 ft | 113 kts | 150° |
| 2026-04-25 09:45 | 50.70124 | -1.83921 | 4694 ft | 114 kts | 151° |
| 2026-04-25 09:45 | 50.69431 | -1.83316 | 4980 ft | 114 kts | 151° |
| 2026-04-25 09:45 | 50.68737 | -1.82712 | 5247 ft | 114 kts | 152° |
| 2026-04-25 09:45 | 50.68034 | -1.82100 | 5496 ft | 116 kts | 152° |
| 2026-04-25 09:46 | 50.67323 | -1.81483 | 5751 ft | 117 kts | 151° |
| 2026-04-25 09:46 | 50.66607 | -1.80861 | 6001 ft | 118 kts | 151° |
| 2026-04-25 09:46 | 50.65884 | -1.80233 | 6245 ft | 119 kts | 151° |
| 2026-04-25 09:46 | 50.65155 | -1.79600 | 6484 ft | 120 kts | 151° |
| 2026-04-25 09:47 | 50.64419 | -1.78961 | 6716 ft | 121 kts | 152° |
| 2026-04-25 09:47 | 50.63678 | -1.78319 | 6925 ft | 122 kts | 152° |
| 2026-04-25 09:47 | 50.62935 | -1.77675 | 7125 ft | 122 kts | 152° |
| 2026-04-25 09:47 | 50.62189 | -1.77028 | 7322 ft | 123 kts | 152° |
| 2026-04-25 09:48 | 50.61448 | -1.76387 | 7503 ft | 123 kts | 152° |
| 2026-04-25 09:48 | 50.60692 | -1.75732 | 7676 ft | 124 kts | 152° |
| 2026-04-25 09:48 | 50.59933 | -1.75076 | 7844 ft | 125 kts | 152° |
| 2026-04-25 09:48 | 50.59170 | -1.74416 | 8006 ft | 125 kts | 152° |
| 2026-04-25 09:49 | 50.58404 | -1.73753 | 8154 ft | 126 kts | 152° |
| 2026-04-25 09:49 | 50.57618 | -1.73076 | 8214 ft | 134 kts | 153° |
| 2026-04-25 09:49 | 50.56772 | -1.72349 | 8227 ft | 142 kts | 153° |
| 2026-04-25 09:49 | 50.55879 | -1.71579 | 8226 ft | 149 kts | 153° |
| 2026-04-25 09:50 | 50.54954 | -1.70780 | 8227 ft | 154 kts | 153° |
| 2026-04-25 09:50 | 50.54008 | -1.69963 | 8225 ft | 156 kts | 153° |
| 2026-04-25 09:50 | 50.53039 | -1.69126 | 8224 ft | 161 kts | 152° |
| 2026-04-25 09:50 | 50.52046 | -1.68270 | 8224 ft | 165 kts | 152° |
| 2026-04-25 09:51 | 50.51035 | -1.67397 | 8224 ft | 167 kts | 152° |
| 2026-04-25 09:51 | 50.50010 | -1.66521 | 8223 ft | 168 kts | 156° |
| 2026-04-25 09:51 | 50.48884 | -1.66415 | 8224 ft | 165 kts | 201° |
| 2026-04-25 09:51 | 50.47939 | -1.67412 | 8223 ft | 165 kts | 215° |
| 2026-04-25 09:52 | 50.46938 | -1.68253 | 8224 ft | 166 kts | 206° |
| 2026-04-25 09:52 | 50.45881 | -1.68995 | 8225 ft | 167 kts | 205° |
| 2026-04-25 09:52 | 50.44818 | -1.69731 | 8225 ft | 167 kts | 205° |
| 2026-04-25 09:52 | 50.43752 | -1.70469 | 8220 ft | 167 kts | 205° |
| 2026-04-25 09:53 | 50.42689 | -1.71205 | 8222 ft | 167 kts | 205° |
| 2026-04-25 09:53 | 50.41624 | -1.71940 | 8220 ft | 167 kts | 205° |
| 2026-04-25 09:53 | 50.40559 | -1.72677 | 8219 ft | 167 kts | 205° |
| 2026-04-25 09:53 | 50.39495 | -1.73412 | 8219 ft | 167 kts | 205° |
| 2026-04-25 09:54 | 50.38429 | -1.74148 | 8218 ft | 167 kts | 205° |
| 2026-04-25 09:54 | 50.37364 | -1.74883 | 8219 ft | 167 kts | 205° |
| 2026-04-25 09:54 | 50.36298 | -1.75618 | 8219 ft | 167 kts | 205° |
| 2026-04-25 09:54 | 50.35230 | -1.76354 | 8220 ft | 167 kts | 205° |
| 2026-04-25 09:55 | 50.34165 | -1.77088 | 8218 ft | 167 kts | 205° |
| 2026-04-25 09:55 | 50.33100 | -1.77822 | 8218 ft | 167 kts | 205° |
| 2026-04-25 09:55 | 50.32035 | -1.78555 | 8217 ft | 167 kts | 205° |
| 2026-04-25 09:55 | 50.30969 | -1.79288 | 8219 ft | 167 kts | 205° |
| 2026-04-25 09:56 | 50.29919 | -1.80010 | 8218 ft | 167 kts | 205° |
| 2026-04-25 09:56 | 50.28855 | -1.80742 | 8217 ft | 167 kts | 205° |
| 2026-04-25 09:56 | 50.27791 | -1.81473 | 8215 ft | 167 kts | 205° |
| 2026-04-25 09:56 | 50.26725 | -1.82205 | 8214 ft | 167 kts | 205° |
| 2026-04-25 09:57 | 50.25661 | -1.82936 | 8212 ft | 167 kts | 205° |
| 2026-04-25 09:57 | 50.24595 | -1.83667 | 8214 ft | 167 kts | 205° |
| 2026-04-25 09:57 | 50.23529 | -1.84398 | 8213 ft | 167 kts | 205° |
| 2026-04-25 09:57 | 50.22461 | -1.85130 | 8215 ft | 167 kts | 205° |
| 2026-04-25 09:58 | 50.21395 | -1.85860 | 8209 ft | 167 kts | 205° |
| 2026-04-25 09:58 | 50.20330 | -1.86589 | 8208 ft | 167 kts | 205° |
| 2026-04-25 09:58 | 50.19265 | -1.87318 | 8210 ft | 167 kts | 205° |
| 2026-04-25 09:58 | 50.18201 | -1.88046 | 8213 ft | 167 kts | 204° |
| 2026-04-25 09:59 | 50.17135 | -1.88774 | 8209 ft | 167 kts | 205° |
| 2026-04-25 09:59 | 50.16084 | -1.89493 | 8210 ft | 167 kts | 205° |
| 2026-04-25 09:59 | 50.15018 | -1.90221 | 8209 ft | 167 kts | 205° |
| 2026-04-25 09:59 | 50.13951 | -1.90949 | 8208 ft | 167 kts | 205° |
| 2026-04-25 10:00 | 50.12887 | -1.91676 | 8205 ft | 167 kts | 205° |
| 2026-04-25 10:00 | 50.11824 | -1.92400 | 8209 ft | 167 kts | 205° |
| 2026-04-25 10:00 | 50.10759 | -1.93126 | 8206 ft | 167 kts | 205° |
| 2026-04-25 10:00 | 50.09695 | -1.93851 | 8207 ft | 167 kts | 205° |
| 2026-04-25 10:01 | 50.08631 | -1.94576 | 8208 ft | 167 kts | 205° |
| 2026-04-25 10:01 | 50.07580 | -1.95292 | 8205 ft | 167 kts | 204° |
| 2026-04-25 10:01 | 50.06518 | -1.96014 | 8206 ft | 167 kts | 205° |
| 2026-04-25 10:01 | 50.05454 | -1.96738 | 8203 ft | 167 kts | 205° |
| 2026-04-25 10:02 | 50.04390 | -1.97461 | 8202 ft | 167 kts | 204° |
| 2026-04-25 10:02 | 50.03326 | -1.98184 | 8202 ft | 167 kts | 205° |
| 2026-04-25 10:02 | 50.02263 | -1.98906 | 8203 ft | 167 kts | 204° |
| 2026-04-25 10:02 | 50.01200 | -1.99627 | 8200 ft | 166 kts | 204° |
| 2026-04-25 10:03 | 50.00138 | -2.00348 | 8203 ft | 166 kts | 205° |
| 2026-04-25 10:03 | 49.99090 | -2.01058 | 8198 ft | 166 kts | 205° |
| 2026-04-25 10:03 | 49.98030 | -2.01777 | 8196 ft | 166 kts | 205° |
| 2026-04-25 10:03 | 49.96969 | -2.02496 | 8192 ft | 166 kts | 203° |
| 2026-04-25 10:04 | 49.95892 | -2.03137 | 8192 ft | 166 kts | 194° |
| 2026-04-25 10:04 | 49.94751 | -2.03438 | 8191 ft | 167 kts | 191° |
| 2026-04-25 10:04 | 49.93609 | -2.03760 | 8191 ft | 166 kts | 192° |
| 2026-04-25 10:04 | 49.92471 | -2.04119 | 8197 ft | 167 kts | 193° |
| 2026-04-25 10:05 | 49.91336 | -2.04482 | 8196 ft | 167 kts | 193° |
| 2026-04-25 10:05 | 49.90213 | -2.04841 | 8198 ft | 167 kts | 193° |
| 2026-04-25 10:05 | 49.89077 | -2.05203 | 8198 ft | 167 kts | 192° |
| 2026-04-25 10:05 | 49.87940 | -2.05567 | 8194 ft | 167 kts | 192° |
| 2026-04-25 10:06 | 49.86802 | -2.05930 | 8192 ft | 167 kts | 192° |
| 2026-04-25 10:06 | 49.85663 | -2.06293 | 8191 ft | 167 kts | 193° |
| 2026-04-25 10:06 | 49.84526 | -2.06656 | 8192 ft | 167 kts | 192° |
| 2026-04-25 10:06 | 49.83389 | -2.07018 | 8189 ft | 166 kts | 192° |
| 2026-04-25 10:07 | 49.82252 | -2.07381 | 8189 ft | 166 kts | 192° |
| 2026-04-25 10:07 | 49.81117 | -2.07742 | 8192 ft | 166 kts | 192° |
| 2026-04-25 10:07 | 49.79984 | -2.08103 | 8190 ft | 166 kts | 192° |
| 2026-04-25 10:07 | 49.78865 | -2.08458 | 8188 ft | 166 kts | 192° |
| 2026-04-25 10:08 | 49.77733 | -2.08819 | 8187 ft | 166 kts | 192° |
| 2026-04-25 10:08 | 49.76601 | -2.09178 | 8188 ft | 166 kts | 192° |
| 2026-04-25 10:08 | 49.75466 | -2.09539 | 8190 ft | 166 kts | 192° |
| 2026-04-25 10:08 | 49.74333 | -2.09899 | 8188 ft | 166 kts | 192° |
| 2026-04-25 10:09 | 49.73199 | -2.10261 | 8188 ft | 166 kts | 192° |
| 2026-04-25 10:09 | 49.72065 | -2.10624 | 8186 ft | 166 kts | 192° |
| 2026-04-25 10:09 | 49.70934 | -2.10996 | 8188 ft | 166 kts | 194° |
| 2026-04-25 10:09 | 49.69823 | -2.11504 | 8187 ft | 166 kts | 198° |
| 2026-04-25 10:10 | 49.68716 | -2.12015 | 8187 ft | 166 kts | 197° |
| 2026-04-25 10:10 | 49.67604 | -2.12506 | 8187 ft | 166 kts | 196° |
| 2026-04-25 10:10 | 49.66492 | -2.12994 | 8188 ft | 166 kts | 196° |
| 2026-04-25 10:10 | 49.65392 | -2.13474 | 8187 ft | 166 kts | 196° |
| 2026-04-25 10:11 | 49.64278 | -2.13961 | 8186 ft | 166 kts | 196° |
| 2026-04-25 10:11 | 49.63164 | -2.14447 | 8187 ft | 166 kts | 196° |
| 2026-04-25 10:11 | 49.62051 | -2.14933 | 8187 ft | 166 kts | 196° |
| 2026-04-25 10:11 | 49.60936 | -2.15420 | 8184 ft | 166 kts | 196° |
| 2026-04-25 10:12 | 49.59824 | -2.15905 | 8184 ft | 166 kts | 196° |
| 2026-04-25 10:12 | 49.58710 | -2.16390 | 8185 ft | 166 kts | 196° |
| 2026-04-25 10:12 | 49.56495 | -2.17355 | 8186 ft | 166 kts | 196° |
| 2026-04-25 10:13 | 49.55383 | -2.17840 | 8183 ft | 166 kts | 195° |
| 2026-04-25 10:13 | 49.54271 | -2.18323 | 8184 ft | 166 kts | 195° |
| 2026-04-25 10:13 | 49.53160 | -2.18806 | 8183 ft | 166 kts | 195° |
| 2026-04-25 10:13 | 49.52047 | -2.19290 | 8182 ft | 166 kts | 195° |
| 2026-04-25 10:14 | 49.50935 | -2.19773 | 8179 ft | 166 kts | 195° |
| 2026-04-25 10:14 | 49.49823 | -2.20257 | 8180 ft | 166 kts | 195° |
| 2026-04-25 10:14 | 49.48708 | -2.20740 | 8180 ft | 166 kts | 195° |
| 2026-04-25 10:14 | 49.47596 | -2.21223 | 8180 ft | 166 kts | 195° |
| 2026-04-25 10:15 | 49.46483 | -2.21705 | 8178 ft | 166 kts | 195° |
| 2026-04-25 10:15 | 49.45368 | -2.22189 | 8177 ft | 166 kts | 195° |
| 2026-04-25 10:15 | 49.44254 | -2.22671 | 8177 ft | 166 kts | 195° |
| 2026-04-25 10:15 | 49.43137 | -2.23155 | 8177 ft | 166 kts | 195° |
| 2026-04-25 10:16 | 49.42021 | -2.23638 | 8177 ft | 167 kts | 195° |
| 2026-04-25 10:16 | 49.40919 | -2.24115 | 8178 ft | 167 kts | 195° |
| 2026-04-25 10:16 | 49.39801 | -2.24598 | 8180 ft | 167 kts | 195° |
| 2026-04-25 10:16 | 49.38685 | -2.25081 | 8177 ft | 167 kts | 195° |
| 2026-04-25 10:17 | 49.37569 | -2.25563 | 8178 ft | 167 kts | 195° |
| 2026-04-25 10:17 | 49.36452 | -2.26045 | 8176 ft | 167 kts | 195° |
| 2026-04-25 10:17 | 49.35337 | -2.26526 | 8179 ft | 167 kts | 195° |
| 2026-04-25 10:17 | 49.34221 | -2.27008 | 8178 ft | 167 kts | 195° |
| 2026-04-25 10:18 | 49.33481 | -2.27327 | 8180 ft | 167 kts | 195° |
| 2026-04-25 10:18 | 49.32363 | -2.27809 | 8181 ft | 167 kts | 195° |
| 2026-04-25 10:18 | 49.31245 | -2.28291 | 8179 ft | 167 kts | 195° |
| 2026-04-25 10:18 | 49.30128 | -2.28772 | 8180 ft | 167 kts | 195° |
| 2026-04-25 10:19 | 49.29009 | -2.29254 | 8180 ft | 167 kts | 195° |
| 2026-04-25 10:19 | 49.27893 | -2.29734 | 8179 ft | 167 kts | 195° |
| 2026-04-25 10:19 | 49.26775 | -2.30215 | 8179 ft | 167 kts | 194° |
| 2026-04-25 10:19 | 49.25657 | -2.30695 | 8179 ft | 167 kts | 195° |
| 2026-04-25 10:20 | 49.24541 | -2.31175 | 8180 ft | 167 kts | 194° |
| 2026-04-25 10:20 | 49.23423 | -2.31655 | 8180 ft | 167 kts | 195° |
| 2026-04-25 10:20 | 49.22307 | -2.32134 | 8179 ft | 167 kts | 194° |
| 2026-04-25 10:20 | 49.21190 | -2.32613 | 8178 ft | 167 kts | 194° |
| 2026-04-25 10:21 | 49.20089 | -2.33085 | 8180 ft | 167 kts | 194° |
| 2026-04-25 10:21 | 49.18972 | -2.33564 | 8179 ft | 167 kts | 194° |
| 2026-04-25 10:21 | 49.17855 | -2.34043 | 8178 ft | 167 kts | 194° |
| 2026-04-25 10:21 | 49.16739 | -2.34521 | 8179 ft | 167 kts | 194° |
| 2026-04-25 10:22 | 49.15622 | -2.34999 | 8176 ft | 167 kts | 194° |
| 2026-04-25 10:22 | 49.14506 | -2.35476 | 8178 ft | 166 kts | 194° |
| 2026-04-25 10:22 | 49.13387 | -2.35955 | 8175 ft | 166 kts | 194° |
| 2026-04-25 10:22 | 49.12273 | -2.36431 | 8177 ft | 166 kts | 194° |
| 2026-04-25 10:23 | 49.11158 | -2.36907 | 8174 ft | 166 kts | 194° |
| 2026-04-25 10:23 | 49.10041 | -2.37384 | 8177 ft | 166 kts | 194° |
| 2026-04-25 10:23 | 49.08937 | -2.37855 | 8176 ft | 166 kts | 194° |
| 2026-04-25 10:23 | 49.07822 | -2.38331 | 8173 ft | 167 kts | 194° |
| 2026-04-25 10:24 | 49.06706 | -2.38807 | 8172 ft | 166 kts | 194° |
| 2026-04-25 10:24 | 49.05592 | -2.39282 | 8173 ft | 166 kts | 194° |
| 2026-04-25 10:24 | 49.04478 | -2.39757 | 8170 ft | 166 kts | 194° |
| 2026-04-25 10:24 | 49.03364 | -2.40231 | 8171 ft | 166 kts | 194° |
| 2026-04-25 10:25 | 49.02249 | -2.40705 | 8169 ft | 166 kts | 194° |
| 2026-04-25 10:25 | 49.01168 | -2.41322 | 8167 ft | 167 kts | 209° |
| 2026-04-25 10:25 | 49.00220 | -2.42320 | 8168 ft | 167 kts | 212° |
| 2026-04-25 10:25 | 48.99245 | -2.43293 | 8168 ft | 167 kts | 210° |
| 2026-04-25 10:26 | 48.98256 | -2.44230 | 8167 ft | 167 kts | 210° |
| 2026-04-25 10:26 | 48.97264 | -2.45162 | 8167 ft | 167 kts | 209° |
| 2026-04-25 10:26 | 48.96273 | -2.46093 | 8167 ft | 168 kts | 210° |
| 2026-04-25 10:26 | 48.95281 | -2.47025 | 8165 ft | 168 kts | 210° |
| 2026-04-25 10:27 | 48.94289 | -2.47956 | 8166 ft | 168 kts | 210° |
| 2026-04-25 10:27 | 48.93296 | -2.48888 | 8165 ft | 168 kts | 209° |
| 2026-04-25 10:27 | 48.92302 | -2.49820 | 8161 ft | 167 kts | 210° |
| 2026-04-25 10:27 | 48.91307 | -2.50744 | 8162 ft | 167 kts | 210° |
| 2026-04-25 10:28 | 48.90311 | -2.51669 | 8163 ft | 168 kts | 209° |
| 2026-04-25 10:28 | 48.89327 | -2.52583 | 8148 ft | 169 kts | 209° |
| 2026-04-25 10:28 | 48.88298 | -2.53536 | 7969 ft | 176 kts | 209° |
| 2026-04-25 10:28 | 48.87247 | -2.54509 | 7772 ft | 177 kts | 209° |
| 2026-04-25 10:29 | 48.86194 | -2.55487 | 7578 ft | 177 kts | 210° |
| 2026-04-25 10:29 | 48.85141 | -2.56472 | 7383 ft | 178 kts | 210° |
| 2026-04-25 10:29 | 48.84083 | -2.57465 | 7183 ft | 179 kts | 210° |
| 2026-04-25 10:29 | 48.83026 | -2.58459 | 6999 ft | 179 kts | 210° |
| 2026-04-25 10:30 | 48.81977 | -2.59448 | 6805 ft | 179 kts | 210° |
| 2026-04-25 10:30 | 48.80919 | -2.60450 | 6615 ft | 179 kts | 210° |
| 2026-04-25 10:30 | 48.79858 | -2.61459 | 6411 ft | 180 kts | 210° |
| 2026-04-25 10:30 | 48.78799 | -2.62470 | 6206 ft | 179 kts | 210° |
| 2026-04-25 10:31 | 48.77755 | -2.63472 | 5999 ft | 176 kts | 210° |
| 2026-04-25 10:31 | 48.76722 | -2.64467 | 5794 ft | 175 kts | 211° |
| 2026-04-25 10:31 | 48.75697 | -2.65461 | 5593 ft | 175 kts | 211° |
| 2026-04-25 10:31 | 48.74676 | -2.66456 | 5390 ft | 174 kts | 210° |
| 2026-04-25 10:32 | 48.73657 | -2.67452 | 5189 ft | 174 kts | 211° |
| 2026-04-25 10:32 | 48.72641 | -2.68450 | 4988 ft | 174 kts | 211° |
| 2026-04-25 10:32 | 48.71627 | -2.69450 | 4788 ft | 174 kts | 211° |
| 2026-04-25 10:32 | 48.70613 | -2.70454 | 4581 ft | 174 kts | 211° |
| 2026-04-25 10:33 | 48.69599 | -2.71462 | 4374 ft | 174 kts | 211° |
| 2026-04-25 10:33 | 48.68585 | -2.72474 | 4176 ft | 175 kts | 211° |
| 2026-04-25 10:33 | 48.67569 | -2.73492 | 3975 ft | 175 kts | 211° |
| 2026-04-25 10:33 | 48.66554 | -2.74514 | 3778 ft | 175 kts | 211° |
| 2026-04-25 10:34 | 48.65551 | -2.75528 | 3576 ft | 175 kts | 211° |
| 2026-04-25 10:34 | 48.64536 | -2.76558 | 3379 ft | 175 kts | 212° |
| 2026-04-25 10:34 | 48.63526 | -2.77588 | 3176 ft | 175 kts | 211° |
| 2026-04-25 10:34 | 48.62517 | -2.78621 | 2974 ft | 175 kts | 211° |
| 2026-04-25 10:35 | 48.61510 | -2.79658 | 2771 ft | 173 kts | 211° |
| 2026-04-25 10:35 | 48.60525 | -2.80680 | 2574 ft | 171 kts | 211° |
| 2026-04-25 10:35 | 48.59550 | -2.81698 | 2365 ft | 170 kts | 212° |
| 2026-04-25 10:35 | 48.58573 | -2.82723 | 2183 ft | 173 kts | 211° |
| 2026-04-25 10:36 | 48.57572 | -2.83777 | 2009 ft | 177 kts | 211° |
| 2026-04-25 10:36 | 48.56599 | -2.84787 | 1993 ft | 162 kts | 212° |
| 2026-04-25 10:36 | 48.55686 | -2.85743 | 1985 ft | 157 kts | 211° |
| 2026-04-25 10:36 | 48.54788 | -2.86658 | 1990 ft | 157 kts | 211° |
| 2026-04-25 10:37 | 48.53891 | -2.87563 | 1989 ft | 155 kts | 207° |
| 2026-04-25 10:37 | 48.52909 | -2.87793 | 1982 ft | 144 kts | 160° |
| 2026-04-25 10:37 | 48.52230 | -2.86753 | 1985 ft | 147 kts | 109° |
| 2026-04-25 10:37 | 48.52331 | -2.85207 | 1879 ft | 154 kts | 67° |
| 2026-04-25 10:38 | 48.52879 | -2.83851 | 1749 ft | 150 kts | 61° |
| 2026-04-25 10:38 | 48.53418 | -2.82550 | 1608 ft | 139 kts | 60° |
| 2026-04-25 10:38 | 48.53919 | -2.81373 | 1463 ft | 128 kts | 60° |
| 2026-04-25 10:38 | 48.54413 | -2.80369 | 1416 ft | 112 kts | 32° |
| 2026-04-25 10:39 | 48.55096 | -2.80726 | 1259 ft | 111 kts | 313° |
| 2026-04-25 10:39 | 48.55366 | -2.81804 | 1060 ft | 111 kts | 263° |
| 2026-04-25 10:39 | 48.54970 | -2.82735 | 847 ft | 106 kts | 228° |
| 2026-04-25 10:39 | 48.54557 | -2.83618 | 604 ft | 100 kts | 240° |
| 2026-04-25 10:40 | 48.54218 | -2.84473 | 450 ft | 88 kts | 240° |
| 2026-04-25 10:40 | 48.53973 | -2.85089 | 441 ft | 52 kts | 239° |
| 2026-04-25 10:40 | 48.53871 | -2.85333 | 445 ft | 13 kts | 218° |
| 2026-04-25 10:40 | 48.53816 | -2.85305 | 444 ft | 9 kts | 146° |
| 2026-04-25 10:41 | 48.53770 | -2.85263 | 436 ft | 7 kts | 150° |
| 2026-04-25 10:41 | 48.53737 | -2.85233 | 439 ft | 4 kts | 154° |
| 2026-04-25 10:41 | 48.53701 | -2.85259 | 442 ft | 9 kts | 240° |
| 2026-04-25 10:41 | 48.53672 | -2.85338 | 442 ft | 7 kts | 237° |
| 2026-04-25 10:42 | 48.53645 | -2.85405 | 442 ft | 10 kts | 238° |
| 2026-04-25 10:42 | 48.53600 | -2.85497 | 442 ft | 10 kts | 202° |
| 2026-04-25 10:42 | 48.53552 | -2.85462 | 445 ft | 7 kts | 140° |
| 2026-04-25 10:42 | 48.53539 | -2.85461 | 440 ft | 1 kts | 238° |
| 2026-04-25 10:43 | 48.53538 | -2.85464 | 439 ft | 0 kts | 259° |